Time;durP1;ratioP1;P1;durP2;ratioP2;P2;SDS_P1;SDS_P2;PMS_P1;PMS_P2;Temp;Humidity;BMP_temperature;BMP_pressure;BME280_temperature;BME280_humidity;BME280_pressure;Samples;Min_cycle;Max_cycle;Signal;HPM_P1;HPM_P2
2022/10/20 00:01:12;;;;;;;14.20;8.65;;;;;;;8.49;98.53;101622.28;5048761;28;20081;-75
2022/10/20 00:03:38;;;;;;;18.30;8.68;;;;;;;8.48;99.06;101596.97;5061665;28;20492;-74
2022/10/20 00:06:12;;;;;;;16.58;8.02;;;;;;;8.51;98.81;101604.94;5064034;28;20098;-75
2022/10/20 00:08:38;;;;;;;16.40;8.48;;;;;;;8.51;99.00;101596.81;5056903;28;20029;-73
2022/10/20 00:11:05;;;;;;;14.10;8.38;;;;;;;8.51;98.71;101593.22;5068982;28;20060;-73
2022/10/20 00:13:30;;;;;;;17.27;8.68;;;;;;;8.51;98.99;101583.25;5057693;28;20033;-74
2022/10/20 00:15:57;;;;;;;17.70;8.45;;;;;;;8.52;98.95;101578.72;5047618;28;20527;-74
2022/10/20 00:18:23;;;;;;;16.38;8.60;;;;;;;8.51;98.90;101577.84;5053037;28;20037;-75
2022/10/20 00:20:50;;;;;;;14.90;7.90;;;;;;;8.50;99.51;101575.22;5051789;28;20624;-75
2022/10/20 00:23:16;;;;;;;13.55;8.82;;;;;;;8.47;99.00;101584.38;5048381;28;20128;-75
2022/10/20 00:25:42;;;;;;;17.70;8.30;;;;;;;8.45;98.95;101588.13;5047420;28;20131;-75
2022/10/20 00:28:07;;;;;;;14.90;8.95;;;;;;;8.44;99.12;101584.56;5053783;28;20160;-73
2022/10/20 00:30:34;;;;;;;16.45;8.13;;;;;;;8.49;99.52;101574.34;5053845;28;20036;-75
2022/10/20 00:32:59;;;;;;;14.93;8.52;;;;;;;8.49;99.99;101577.06;5050471;28;20036;-75
2022/10/20 00:35:25;;;;;;;14.90;10.25;;;;;;;8.47;98.99;101587.09;5068687;28;20047;-74
2022/10/20 00:37:50;;;;;;;17.98;8.77;;;;;;;8.45;99.74;101571.88;5052845;28;20476;-74
2022/10/20 00:40:15;;;;;;;17.42;8.75;;;;;;;8.47;100.00;101565.38;5052515;28;20377;-74
2022/10/20 00:42:45;;;;;;;13.65;7.88;;;;;;;8.45;99.88;101558.31;5052349;28;20049;-75
2022/10/20 00:45:13;;;;;;;14.30;9.02;;;;;;;8.44;99.92;101560.16;5056121;28;20017;-75
2022/10/20 00:47:46;;;;;;;18.63;8.27;;;;;;;8.40;100.00;101548.56;5063772;28;20127;-75
2022/10/20 00:50:20;;;;;;;16.90;8.90;;;;;;;8.42;100.00;101551.19;5051097;28;20047;-74
2022/10/20 00:52:46;;;;;;;15.55;9.50;;;;;;;8.43;100.00;101551.09;5065773;28;20495;-74
2022/10/20 00:55:22;;;;;;;16.88;8.43;;;;;;;8.41;100.00;101544.91;5059698;28;20135;-74
2022/10/20 00:57:50;;;;;;;16.15;9.77;;;;;;;8.44;100.00;101541.16;5052014;28;20049;-74
2022/10/20 01:00:16;;;;;;;23.20;9.13;;;;;;;8.45;100.00;101542.91;5070150;28;20395;-74
2022/10/20 01:02:45;;;;;;;18.55;9.15;;;;;;;8.45;100.00;101547.47;5067306;23;20464;31
2022/10/20 01:05:10;;;;;;;21.55;9.95;;;;;;;8.42;100.00;101543.94;4996083;28;20132;-69
2022/10/20 01:07:36;;;;;;;17.40;8.63;;;;;;;8.38;100.00;101545.06;4972449;28;20110;-69
2022/10/20 01:10:03;;;;;;;17.35;9.38;;;;;;;8.41;100.00;101549.44;4991338;28;20023;-70
2022/10/20 01:13:05;;;;;;;18.42;9.25;;;;;;;8.41;100.00;101525.91;4989875;28;20385;-70
2022/10/20 01:15:43;;;;;;;16.75;9.38;;;;;;;8.40;100.00;101524.19;4986529;28;20095;-69
2022/10/20 01:18:19;;;;;;;17.80;9.57;;;;;;;8.39;100.00;101514.28;4986192;28;20489;-68
2022/10/20 01:20:54;;;;;;;20.38;10.13;;;;;;;8.40;100.00;101498.91;4971715;28;20375;-69
2022/10/20 01:23:46;;;;;;;20.63;10.55;;;;;;;8.41;100.00;101487.09;4988539;28;20046;-70
2022/10/20 01:26:23;;;;;;;19.48;8.88;;;;;;;8.43;100.00;101483.31;4989627;28;20038;-69
2022/10/20 01:28:58;;;;;;;17.15;9.27;;;;;;;8.46;100.00;101484.13;4972223;28;20576;-70
2022/10/20 01:31:35;;;;;;;17.15;9.70;;;;;;;8.46;100.00;101476.88;4996901;28;20045;-69
2022/10/20 01:34:35;;;;;;;27.10;13.18;;;;;;;8.48;100.00;101471.34;4970634;28;20237;-70
2022/10/20 01:37:09;;;;;;;19.33;10.80;;;;;;;8.49;100.00;101465.88;4981184;28;20034;-70
2022/10/20 01:39:39;;;;;;;17.92;9.77;;;;;;;8.46;100.00;101465.16;4972204;28;20042;-70
2022/10/20 01:42:15;;;;;;;15.80;9.65;;;;;;;8.39;100.00;101476.34;4963096;28;20077;-69
2022/10/20 01:44:41;;;;;;;19.10;9.88;;;;;;;8.37;100.00;101477.38;4968122;28;20073;-69
2022/10/20 01:47:09;;;;;;;21.52;10.20;;;;;;;8.37;100.00;101472.81;4979859;28;20389;-69
2022/10/20 01:49:35;;;;;;;17.88;9.38;;;;;;;8.34;100.00;101470.22;4981568;28;20117;-71
2022/10/20 01:52:01;;;;;;;19.48;9.48;;;;;;;8.29;100.00;101480.44;4972328;28;20042;-69
2022/10/20 01:54:28;;;;;;;17.40;8.63;;;;;;;8.24;100.00;101485.22;4971430;28;20027;-69
2022/10/20 01:57:12;;;;;;;18.48;9.30;;;;;;;8.19;100.00;101481.88;4971113;28;20022;-69
2022/10/20 01:59:47;;;;;;;17.13;9.93;;;;;;;8.17;100.00;101478.38;4971804;28;20039;-71
2022/10/20 02:02:43;;;;;;;16.80;9.73;;;;;;;8.12;100.00;101475.91;4971050;28;20035;-69
2022/10/20 02:05:26;;;;;;;15.90;10.00;;;;;;;8.09;100.00;101476.06;4972472;28;20055;-70
2022/10/20 02:08:04;;;;;;;19.73;10.25;;;;;;;8.07;100.00;101475.28;4971893;28;20162;-69
2022/10/20 02:10:39;;;;;;;21.35;9.32;;;;;;;8.03;100.00;101475.53;4972206;28;20089;-71
2022/10/20 02:13:06;;;;;;;18.48;8.57;;;;;;;7.98;100.00;101467.63;4970978;28;20486;-69
2022/10/20 02:15:37;;;;;;;19.65;10.73;;;;;;;7.93;100.00;101462.44;4972003;28;20033;-69
2022/10/20 02:18:06;;;;;;;20.27;9.45;;;;;;;7.88;100.00;101453.69;4970609;28;20038;-69
2022/10/20 02:20:32;;;;;;;18.95;9.23;;;;;;;7.87;100.00;101451.03;4972033;28;20031;-69
2022/10/20 02:22:59;;;;;;;15.20;9.05;;;;;;;7.83;100.00;101444.91;4971667;28;20037;-69
2022/10/20 02:25:27;;;;;;;20.30;10.23;;;;;;;7.84;100.00;101440.38;4986709;28;20122;-71
2022/10/20 02:27:54;;;;;;;19.92;9.70;;;;;;;7.82;100.00;101426.00;4971798;28;20395;-69
2022/10/20 02:30:20;;;;;;;19.35;10.15;;;;;;;7.83;100.00;101435.88;4970293;28;20043;-69
2022/10/20 02:32:51;;;;;;;17.33;9.35;;;;;;;7.78;100.00;101429.84;4970371;28;20118;-69
2022/10/20 02:35:21;;;;;;;16.05;9.77;;;;;;;7.74;100.00;101418.31;4982221;28;20062;-69
2022/10/20 02:37:46;;;;;;;19.95;9.85;;;;;;;7.79;100.00;101407.25;4963705;28;20482;-69
2022/10/20 02:40:12;;;;;;;20.85;9.90;;;;;;;7.79;100.00;101405.41;4956748;28;20045;-70
2022/10/20 02:42:39;;;;;;;18.50;9.70;;;;;;;7.78;100.00;101405.47;4971606;28;20035;-71
2022/10/20 02:45:06;;;;;;;21.83;10.98;;;;;;;7.79;100.00;101399.97;4971601;28;20042;-69
2022/10/20 02:47:32;;;;;;;20.15;10.45;;;;;;;7.82;100.00;101390.81;4971281;28;20026;-68
2022/10/20 02:49:57;;;;;;;19.83;10.70;;;;;;;7.80;100.00;101382.78;4971498;28;20121;-69
2022/10/20 02:52:22;;;;;;;24.88;11.38;;;;;;;7.82;100.00;101388.09;4971285;28;20037;-69
2022/10/20 02:54:48;;;;;;;21.55;10.40;;;;;;;7.83;100.00;101368.16;4971859;28;20042;-69
2022/10/20 02:57:13;;;;;;;23.63;12.57;;;;;;;7.85;100.00;101360.84;4971206;28;20030;-69
2022/10/20 02:59:38;;;;;;;19.33;11.52;;;;;;;7.86;100.00;101368.03;4970757;28;20026;-70
2022/10/20 03:02:04;;;;;;;18.77;10.18;;;;;;;7.87;100.00;101358.94;4971342;28;20793;-70
2022/10/20 03:04:29;;;;;;;22.67;11.10;;;;;;;7.86;100.00;101355.34;4971292;28;20125;-70
2022/10/20 03:06:54;;;;;;;27.08;11.27;;;;;;;7.87;100.00;101332.72;4969828;28;20105;-69
2022/10/20 03:09:20;;;;;;;26.25;11.25;;;;;;;7.89;100.00;101333.53;4969674;28;20112;-69
2022/10/20 03:11:45;;;;;;;27.08;11.93;;;;;;;7.88;100.00;101345.31;4970979;28;20074;-70
2022/10/20 03:14:11;;;;;;;23.95;10.43;;;;;;;7.91;100.00;101346.97;4969449;28;20039;-70
2022/10/20 03:16:36;;;;;;;20.75;12.23;;;;;;;7.96;100.00;101339.47;4969738;28;20027;-69
2022/10/20 03:19:02;;;;;;;26.50;11.57;;;;;;;7.98;100.00;101340.28;4953660;28;20035;-69
2022/10/20 03:21:27;;;;;;;26.83;12.10;;;;;;;7.97;100.00;101324.97;4969370;28;20486;-69
2022/10/20 03:23:53;;;;;;;23.50;12.48;;;;;;;8.00;100.00;101323.94;4985972;28;20401;-69
2022/10/20 03:26:18;;;;;;;19.90;11.38;;;;;;;8.01;100.00;101326.56;4990471;28;20026;-70
2022/10/20 03:28:44;;;;;;;22.17;12.82;;;;;;;8.04;100.00;101320.09;4982937;28;20142;-70
2022/10/20 03:31:09;;;;;;;22.63;12.20;;;;;;;8.04;100.00;101315.56;4965064;28;20132;-70
2022/10/20 03:33:35;;;;;;;29.73;13.30;;;;;;;8.08;100.00;101308.16;4971103;28;20030;-69
2022/10/20 03:36:00;;;;;;;49.53;15.38;;;;;;;8.11;100.00;101305.25;4970532;28;20033;-69
2022/10/20 03:38:26;;;;;;;30.58;13.88;;;;;;;8.13;100.00;101315.06;4969312;28;20134;-70
2022/10/20 03:40:51;;;;;;;25.63;13.60;;;;;;;8.14;100.00;101303.25;4970418;28;20042;-69
2022/10/20 03:43:17;;;;;;;26.25;12.80;;;;;;;8.13;100.00;101304.22;4968824;28;20031;-70
2022/10/20 03:45:43;;;;;;;26.27;14.32;;;;;;;8.17;100.00;101300.38;4967961;28;20082;-70
2022/10/20 03:48:09;;;;;;;25.33;12.95;;;;;;;8.21;100.00;101301.09;4968927;28;20447;-71
2022/10/20 03:50:40;;;;;;;24.85;13.70;;;;;;;8.24;100.00;101300.03;4971034;28;20122;-69
2022/10/20 03:53:07;;;;;;;25.77;12.63;;;;;;;8.25;100.00;101297.22;4982810;28;20484;-70
2022/10/20 03:55:32;;;;;;;33.97;13.75;;;;;;;8.27;100.00;101289.91;4953003;28;20027;-69
2022/10/20 03:57:57;;;;;;;27.63;14.07;;;;;;;8.33;100.00;101278.72;4952709;28;20137;-69
2022/10/20 04:00:23;;;;;;;25.73;13.25;;;;;;;8.35;100.00;101278.66;4970004;28;20517;-70
2022/10/20 04:02:48;;;;;;;27.17;12.68;;;;;;;8.35;100.00;101276.81;4965302;28;20031;-69
2022/10/20 04:05:16;;;;;;;23.92;12.93;;;;;;;8.33;100.00;101300.41;4969084;28;20485;-69
2022/10/20 04:07:42;;;;;;;26.50;13.73;;;;;;;8.33;100.00;101291.41;4970042;28;20054;-70
2022/10/20 04:10:08;;;;;;;30.45;13.23;;;;;;;8.34;100.00;101283.16;4969447;28;20043;-71
2022/10/20 04:12:34;;;;;;;30.73;14.30;;;;;;;8.36;100.00;101281.28;4970009;28;20121;-69
2022/10/20 04:14:59;;;;;;;25.05;13.90;;;;;;;8.39;100.00;101283.84;4970102;28;20494;-68
2022/10/20 04:17:25;;;;;;;27.60;13.23;;;;;;;8.39;100.00;101277.50;4953209;28;20100;-69
2022/10/20 04:19:50;;;;;;;28.95;13.70;;;;;;;8.41;100.00;101276.47;4970154;28;20018;-70
2022/10/20 04:22:16;;;;;;;26.02;13.70;;;;;;;8.45;100.00;101260.94;4962111;28;20054;-70
2022/10/20 04:24:41;;;;;;;30.55;14.82;;;;;;;8.49;100.00;101253.50;4968558;28;20470;-70
2022/10/20 04:27:06;;;;;;;27.40;14.13;;;;;;;8.51;100.00;101248.84;4970360;28;20121;-70
2022/10/20 04:29:32;;;;;;;28.73;15.18;;;;;;;8.53;100.00;101247.78;4958722;28;20030;-69
2022/10/20 04:31:57;;;;;;;24.80;13.88;;;;;;;8.55;100.00;101245.88;4969074;28;20106;-70
2022/10/20 04:34:23;;;;;;;27.65;14.48;;;;;;;8.55;100.00;101243.16;4975227;28;20066;-69
2022/10/20 04:36:48;;;;;;;31.55;15.20;;;;;;;8.59;100.00;101241.16;4977877;28;20504;-69
2022/10/20 04:39:14;;;;;;;28.92;13.55;;;;;;;8.63;100.00;101238.19;4969763;28;20042;-69
2022/10/20 04:41:39;;;;;;;25.02;13.43;;;;;;;8.64;100.00;101230.91;4969993;28;20077;-68
2022/10/20 04:44:05;;;;;;;26.70;14.23;;;;;;;8.67;100.00;101231.63;4969673;28;20046;-69
2022/10/20 04:46:30;;;;;;;26.42;14.27;;;;;;;8.76;100.00;101232.00;4968290;28;20137;-69
2022/10/20 04:48:55;;;;;;;32.00;15.43;;;;;;;8.80;100.00;101229.03;4969688;28;20113;-69
2022/10/20 04:51:21;;;;;;;37.05;15.25;;;;;;;8.83;100.00;101226.16;4969602;28;20041;-68
2022/10/20 04:53:46;;;;;;;33.92;15.52;;;;;;;8.92;100.00;101211.16;4969774;28;20740;-69
2022/10/20 04:56:21;;;;;;;33.92;15.60;;;;;;;9.00;100.00;101200.72;4968382;28;20458;-68
2022/10/20 04:58:51;;;;;;;33.20;17.23;;;;;;;9.05;100.00;101204.03;4969422;28;20068;-69
2022/10/20 05:01:18;;;;;;;38.17;15.88;;;;;;;9.08;100.00;101198.41;4969584;28;20542;-68
2022/10/20 05:03:44;;;;;;;31.80;14.70;;;;;;;9.14;100.00;101198.06;4969284;28;20141;-69
2022/10/20 05:06:16;;;;;;;34.22;15.93;;;;;;;9.19;100.00;101192.34;4967994;28;20034;-69
2022/10/20 05:08:43;;;;;;;30.95;14.93;;;;;;;9.22;100.00;101203.00;4969482;28;20030;-69
2022/10/20 05:11:09;;;;;;;32.22;15.63;;;;;;;9.28;100.00;101199.94;4969450;28;20035;-69
2022/10/20 05:13:36;;;;;;;36.30;15.27;;;;;;;9.31;100.00;101210.59;4982980;28;20205;-68
2022/10/20 05:16:01;;;;;;;30.67;15.43;;;;;;;9.34;100.00;101223.97;4969337;28;20039;-70
2022/10/20 05:18:28;;;;;;;28.52;14.82;;;;;;;9.37;100.00;101222.91;4967984;28;20043;-71
2022/10/20 05:20:54;;;;;;;28.90;14.63;;;;;;;9.39;100.00;101199.25;4969454;28;20066;-69
2022/10/20 05:23:19;;;;;;;28.65;14.55;;;;;;;9.47;100.00;101188.81;4972413;28;20061;-69
2022/10/20 05:25:44;;;;;;;29.33;15.65;;;;;;;9.51;100.00;101165.88;4971702;28;20035;-69
2022/10/20 05:28:10;;;;;;;39.58;15.35;;;;;;;9.52;100.00;101177.66;4972578;28;20575;-69
2022/10/20 05:30:35;;;;;;;29.42;14.23;;;;;;;9.48;100.00;101195.09;4971534;28;20038;-70
2022/10/20 05:33:01;;;;;;;27.27;14.93;;;;;;;9.45;100.00;101190.72;4972776;28;20035;-69
2022/10/20 05:35:27;;;;;;;25.58;15.27;;;;;;;9.42;100.00;101188.22;4973218;28;20099;-68
2022/10/20 05:37:53;;;;;;;26.17;13.25;;;;;;;9.38;100.00;101190.25;4970360;28;20442;-69
2022/10/20 05:40:18;;;;;;;30.17;14.25;;;;;;;9.40;100.00;101204.59;4972717;28;20046;-68
2022/10/20 05:42:44;;;;;;;28.67;14.00;;;;;;;9.38;100.00;101183.94;4970342;28;20034;-70
2022/10/20 05:45:09;;;;;;;26.58;15.02;;;;;;;9.39;100.00;101170.25;4969154;28;20050;-69
2022/10/20 05:47:35;;;;;;;29.98;13.85;;;;;;;9.41;100.00;101165.59;4971360;28;20035;-69
2022/10/20 05:50:00;;;;;;;29.17;14.45;;;;;;;9.44;100.00;101164.53;4972758;28;20049;-69
2022/10/20 05:52:26;;;;;;;27.90;14.48;;;;;;;9.45;100.00;101179.84;4960285;28;20031;-69
2022/10/20 05:54:51;;;;;;;23.90;12.75;;;;;;;9.43;100.00;101179.97;4972345;28;20090;-69
2022/10/20 05:57:16;;;;;;;24.90;13.80;;;;;;;9.41;100.00;101189.16;4972503;28;20043;-69
2022/10/20 05:59:42;;;;;;;25.40;13.07;;;;;;;9.38;100.00;101189.38;4970806;28;20072;-69
2022/10/20 06:02:09;;;;;;;25.50;13.43;;;;;;;9.39;100.00;101191.97;4983136;28;20117;-69
2022/10/20 06:04:35;;;;;;;27.58;13.27;;;;;;;9.39;100.00;101191.97;4972386;28;20117;-69
2022/10/20 06:07:00;;;;;;;28.02;13.88;;;;;;;9.37;100.00;101184.88;4969954;28;20773;-69
2022/10/20 06:09:25;;;;;;;24.05;14.40;;;;;;;9.32;100.00;101170.72;4969695;28;20109;-69
2022/10/20 06:11:51;;;;;;;25.33;12.68;;;;;;;9.37;100.00;101187.59;4972170;28;20069;-69
2022/10/20 06:14:17;;;;;;;30.60;13.60;;;;;;;9.34;100.00;101185.97;4971762;28;20043;-69
2022/10/20 06:16:43;;;;;;;29.27;14.13;;;;;;;9.37;100.00;101182.16;4971940;28;20093;-69
2022/10/20 06:19:09;;;;;;;23.55;13.57;;;;;;;9.34;100.00;101171.53;4972152;28;20393;-70
2022/10/20 06:21:36;;;;;;;26.30;13.55;;;;;;;9.37;100.00;101190.31;4972220;28;20042;-70
2022/10/20 06:24:04;;;;;;;25.65;13.75;;;;;;;9.38;100.00;101186.66;4971738;28;20054;-69
2022/10/20 06:26:31;;;;;;;27.48;14.57;;;;;;;9.36;100.00;101184.00;4971693;28;20137;-69
2022/10/20 06:28:58;;;;;;;24.73;13.88;;;;;;;9.39;100.00;101191.13;4970341;28;20042;-69
2022/10/20 06:31:29;;;;;;;26.10;14.32;;;;;;;9.41;100.00;101195.47;4971727;28;20048;-69
2022/10/20 06:33:55;;;;;;;25.65;13.10;;;;;;;9.47;100.00;101194.22;4980437;28;20038;-70
2022/10/20 06:36:22;;;;;;;26.55;14.70;;;;;;;9.55;100.00;101182.88;4985984;28;20023;-69
2022/10/20 06:38:52;;;;;;;25.40;14.43;;;;;;;9.58;100.00;101188.13;4954184;28;20450;-68
2022/10/20 06:41:17;;;;;;;26.55;14.10;;;;;;;9.60;100.00;101178.88;4971675;28;20039;-69
2022/10/20 06:43:43;;;;;;;28.70;14.98;;;;;;;9.65;100.00;101181.31;4955462;28;20069;-71
2022/10/20 06:46:15;;;;;;;26.77;14.73;;;;;;;9.65;100.00;101170.44;4971242;28;20117;-69
2022/10/20 06:48:42;;;;;;;29.80;16.13;;;;;;;9.69;100.00;101178.31;4971476;28;20514;-70
2022/10/20 06:51:11;;;;;;;26.00;14.82;;;;;;;9.72;100.00;101171.81;4954121;28;20109;-69
2022/10/20 06:53:37;;;;;;;26.77;14.30;;;;;;;9.76;100.00;101170.66;4971870;28;20146;-70
2022/10/20 06:56:05;;;;;;;25.15;15.13;;;;;;;9.81;100.00;101168.50;4971231;28;20043;-69
2022/10/20 06:58:32;;;;;;;27.35;13.57;;;;;;;9.84;100.00;101162.00;4969809;28;20497;-69
2022/10/20 07:00:59;;;;;;;26.63;14.88;;;;;;;9.88;100.00;101163.53;4977937;28;20344;-70
2022/10/20 07:03:25;;;;;;;26.23;13.98;;;;;;;9.91;100.00;101158.78;4977103;28;20057;-69
2022/10/20 07:05:51;;;;;;;24.23;14.07;;;;;;;9.94;100.00;101147.72;4971106;28;20085;-70
2022/10/20 07:08:16;;;;;;;24.63;14.23;;;;;;;9.98;100.00;101140.25;4971167;28;20071;-69
2022/10/20 07:10:41;;;;;;;26.08;14.57;;;;;;;10.03;100.00;101142.69;4969500;28;20038;-69
2022/10/20 07:13:07;;;;;;;26.73;14.18;;;;;;;10.07;100.00;101150.53;4970994;28;20031;-69
2022/10/20 07:15:32;;;;;;;25.25;15.88;;;;;;;10.10;100.00;101150.31;4971004;28;20035;-69
2022/10/20 07:17:57;;;;;;;28.27;15.00;;;;;;;10.15;100.00;101161.75;4969361;28;20038;-69
2022/10/20 07:20:23;;;;;;;26.10;14.68;;;;;;;10.19;100.00;101159.72;4970964;28;20049;-69
2022/10/20 07:22:48;;;;;;;22.05;13.27;;;;;;;10.23;100.00;101163.97;4970857;28;20121;-69
2022/10/20 07:25:13;;;;;;;26.63;14.80;;;;;;;10.27;100.00;101167.41;4970661;28;20070;-69
2022/10/20 07:27:39;;;;;;;26.60;14.57;;;;;;;10.32;100.00;101173.41;4953465;28;20062;-69
2022/10/20 07:30:04;;;;;;;27.52;14.23;;;;;;;10.35;100.00;101173.19;4966386;28;20039;-68
2022/10/20 07:32:30;;;;;;;26.60;13.85;;;;;;;10.38;100.00;101162.97;4970456;28;20031;-70
2022/10/20 07:34:55;;;;;;;32.13;14.00;;;;;;;10.46;100.00;101159.75;4970844;28;20035;-69
2022/10/20 07:37:20;;;;;;;24.90;14.35;;;;;;;10.51;100.00;101168.50;4962466;28;20587;-69
2022/10/20 07:39:46;;;;;;;29.83;14.32;;;;;;;10.57;100.00;101167.19;4970443;28;20465;-69
2022/10/20 07:42:11;;;;;;;29.67;14.00;;;;;;;10.62;100.00;101162.31;4969387;28;20085;-68
2022/10/20 07:44:36;;;;;;;27.52;13.80;;;;;;;10.68;100.00;101172.81;4969127;28;20039;-68
2022/10/20 07:47:02;;;;;;;25.33;13.85;;;;;;;10.73;100.00;101157.91;4968907;28;20043;-69
2022/10/20 07:49:27;;;;;;;29.05;13.95;;;;;;;10.79;100.00;101161.19;4970716;28;20596;-69
2022/10/20 07:51:52;;;;;;;23.35;14.27;;;;;;;10.86;100.00;101166.06;4970025;28;20038;-68
2022/10/20 07:54:18;;;;;;;23.58;13.68;;;;;;;10.92;100.00;101165.69;4968987;28;20074;-68
2022/10/20 07:56:45;;;;;;;26.88;14.82;;;;;;;10.99;100.00;101164.25;4968999;28;20234;-68
2022/10/20 07:59:11;;;;;;;24.52;14.00;;;;;;;11.05;100.00;101168.44;4969700;28;20051;-71
2022/10/20 08:01:37;;;;;;;23.02;13.18;;;;;;;11.12;100.00;101166.16;4979743;28;20334;-68
2022/10/20 08:04:03;;;;;;;26.15;13.45;;;;;;;11.18;100.00;101169.28;4967545;28;20200;-69
2022/10/20 08:06:28;;;;;;;26.65;14.10;;;;;;;11.24;100.00;101165.31;4954962;28;20066;-68
2022/10/20 08:08:54;;;;;;;22.40;12.65;;;;;;;11.29;100.00;101156.81;4952063;28;20081;-69
2022/10/20 08:11:20;;;;;;;22.67;12.93;;;;;;;11.34;100.00;101141.00;4970116;28;20045;-70
2022/10/20 08:13:45;;;;;;;20.85;12.63;;;;;;;11.43;100.00;101153.97;4969997;28;20038;-71
2022/10/20 08:16:13;;;;;;;23.67;12.40;;;;;;;11.49;100.00;101161.69;4967587;28;20038;-69
2022/10/20 08:18:41;;;;;;;25.00;12.38;;;;;;;11.53;99.52;101160.50;4969830;28;20071;-69
2022/10/20 08:21:17;;;;;;;21.95;12.95;;;;;;;11.61;99.70;101154.47;4970399;28;20583;-68
2022/10/20 08:23:45;;;;;;;21.17;11.68;;;;;;;11.69;99.64;101149.38;4970070;28;20446;-69
2022/10/20 08:26:12;;;;;;;19.75;11.98;;;;;;;11.77;99.11;101149.69;4968649;28;20092;-69
2022/10/20 08:28:38;;;;;;;21.35;11.95;;;;;;;11.85;98.54;101154.63;4969799;28;20034;-72
2022/10/20 08:31:05;;;;;;;23.73;12.73;;;;;;;11.90;98.07;101142.41;4970116;28;20058;-72
2022/10/20 08:33:31;;;;;;;28.70;12.68;;;;;;;11.97;98.29;101149.13;4969584;28;20030;-68
2022/10/20 08:36:01;;;;;;;26.73;12.90;;;;;;;12.06;97.88;101160.34;4969792;28;20379;-69
2022/10/20 08:38:26;;;;;;;22.70;12.68;;;;;;;12.11;98.04;101144.50;4969995;28;20394;-69
2022/10/20 08:40:52;;;;;;;18.90;11.23;;;;;;;12.18;96.98;101154.88;4969811;28;20082;-69
2022/10/20 08:43:18;;;;;;;23.70;12.75;;;;;;;12.23;96.78;101151.78;4969688;28;20406;-68
2022/10/20 08:45:44;;;;;;;18.90;11.20;;;;;;;12.29;97.04;101151.31;4969739;28;20031;-68
2022/10/20 08:48:21;;;;;;;17.90;11.35;;;;;;;12.41;97.48;101147.69;4962569;28;20049;-68
2022/10/20 08:50:49;;;;;;;20.73;13.15;;;;;;;12.55;96.66;101141.19;4988018;28;20073;-68
2022/10/20 08:53:17;;;;;;;21.30;11.05;;;;;;;12.75;96.76;101134.19;4969876;28;20050;-69
2022/10/20 08:55:43;;;;;;;20.75;11.90;;;;;;;12.88;95.40;101135.00;4968195;28;20062;-69
2022/10/20 08:58:13;;;;;;;24.05;12.57;;;;;;;12.99;95.02;101136.88;4971048;28;20513;-69
2022/10/20 09:00:40;;;;;;;18.38;11.63;;;;;;;13.10;93.61;101117.78;4972133;28;20085;-69
2022/10/20 09:03:14;;;;;;;22.63;11.75;;;;;;;13.24;94.60;101123.09;4973225;28;20058;-69
2022/10/20 09:05:43;;;;;;;18.60;11.57;;;;;;;13.31;93.64;101111.66;4972267;28;20502;-69
2022/10/20 09:08:09;;;;;;;20.67;11.52;;;;;;;13.40;92.54;101120.00;4971894;28;20463;-69
2022/10/20 09:10:38;;;;;;;30.23;11.85;;;;;;;13.48;93.45;101125.72;4973534;28;20125;-69
2022/10/20 09:13:25;;;;;;;18.27;11.05;;;;;;;13.55;92.52;101122.47;4973500;28;20045;-70
2022/10/20 09:15:59;;;;;;;17.20;10.90;;;;;;;13.61;91.33;101127.44;4973164;28;20064;-69
2022/10/20 09:18:25;;;;;;;24.70;11.50;;;;;;;13.62;91.17;101124.59;4970823;28;20034;-69
2022/10/20 09:20:54;;;;;;;21.20;11.82;;;;;;;13.66;91.53;101125.19;4973038;28;20475;-69
2022/10/20 09:23:24;;;;;;;18.80;11.43;;;;;;;13.67;91.13;101122.38;4984056;28;20042;-69
2022/10/20 09:25:50;;;;;;;16.50;11.07;;;;;;;13.67;90.38;101122.38;4992577;28;20057;-68
2022/10/20 09:28:27;;;;;;;21.38;11.93;;;;;;;13.68;91.71;101123.25;4979901;28;20135;-71
2022/10/20 09:30:53;;;;;;;21.17;11.75;;;;;;;13.69;90.86;101116.75;4972810;28;20123;-68
2022/10/20 09:33:28;;;;;;;19.10;11.52;;;;;;;13.71;90.96;101114.78;4972837;28;20045;-70
2022/10/20 09:36:04;;;;;;;20.20;11.45;;;;;;;13.69;90.73;101117.63;4972980;28;20035;-68
2022/10/20 09:38:33;;;;;;;18.42;10.93;;;;;;;13.65;89.30;101110.66;4973027;28;20498;-68
2022/10/20 09:41:12;;;;;;;21.80;11.27;;;;;;;13.65;91.30;101126.22;4972665;28;20046;-69
2022/10/20 09:43:57;;;;;;;19.55;10.70;;;;;;;13.66;91.68;101119.75;4956055;28;20187;-72
2022/10/20 09:46:26;;;;;;;17.23;11.07;;;;;;;13.69;91.16;101128.56;4971068;28;20413;-68
2022/10/20 09:48:52;;;;;;;23.17;11.07;;;;;;;13.65;90.51;101116.13;4972755;28;20042;-69
2022/10/20 09:51:22;;;;;;;18.38;10.98;;;;;;;13.67;90.64;101137.91;4955814;28;20030;-69
2022/10/20 09:53:52;;;;;;;18.40;10.98;;;;;;;13.65;90.45;101131.69;4971402;28;20070;-69
2022/10/20 09:56:39;;;;;;;19.40;10.98;;;;;;;13.63;91.31;101109.94;4972562;28;20039;-69
2022/10/20 09:59:20;;;;;;;17.25;10.18;;;;;;;13.61;90.40;101109.19;4971489;28;20133;-69
2022/10/20 10:01:52;;;;;;;25.30;11.43;;;;;;;13.59;91.57;101111.19;4970843;28;20052;-69
2022/10/20 10:04:31;;;;;;;;;;;;;;;13.62;92.24;101104.59;4972545;28;20051;-70
2022/10/20 10:06:57;;;;;;;22.58;11.25;;;;;;;13.54;92.21;101113.41;4969935;28;19918;-69
2022/10/20 10:09:27;;;;;;;18.50;10.88;;;;;;;13.54;91.86;101116.16;4971195;28;20092;-70
2022/10/20 10:11:58;;;;;;;21.83;11.52;;;;;;;13.49;92.66;101108.31;4972061;28;20043;-70
2022/10/20 10:14:23;;;;;;;20.42;11.60;;;;;;;13.47;92.63;101109.41;4972047;28;20047;-69
2022/10/20 10:16:49;;;;;;;21.55;12.15;;;;;;;13.42;93.47;101107.06;4972345;28;20708;-69
2022/10/20 10:19:18;;;;;;;26.23;12.32;;;;;;;13.41;94.37;101116.25;4969888;28;20038;-69
2022/10/20 10:22:03;;;;;;;18.88;12.18;;;;;;;13.41;95.29;101112.66;4972096;28;20074;-69
2022/10/20 10:24:47;;;;;;;20.60;12.23;;;;;;;13.37;96.04;101111.16;4971865;28;20404;-69
2022/10/20 10:27:31;;;;;;;23.38;11.50;;;;;;;13.30;96.37;101096.25;4954473;28;20466;-69
2022/10/20 10:30:31;;;;;;;22.95;11.75;;;;;;;13.30;96.96;101094.41;4971733;28;20375;-70
2022/10/20 10:32:56;;;;;;;23.73;11.60;;;;;;;13.27;97.55;101090.03;4971152;28;20121;-68
2022/10/20 10:35:33;;;;;;;20.67;11.30;;;;;;;13.25;97.94;101092.03;4973876;28;20134;-70
2022/10/20 10:37:59;;;;;;;19.55;11.30;;;;;;;13.23;98.55;101080.34;4974152;28;20034;-69
2022/10/20 10:40:33;;;;;;;24.15;12.27;;;;;;;13.22;98.80;101078.59;4971766;28;20050;-70
2022/10/20 10:43:11;;;;;;;27.98;13.07;;;;;;;13.23;99.74;101076.75;4971522;28;20544;-70
2022/10/20 10:45:45;;;;;;;22.58;12.30;;;;;;;13.21;99.87;101070.50;4982175;28;20462;-69
2022/10/20 10:48:49;;;;;;;18.75;12.52;;;;;;;13.24;99.85;101079.38;4971319;28;20435;-69
2022/10/20 10:51:42;;;;;;;24.25;13.95;;;;;;;13.24;100.00;101087.56;4953867;28;20125;-69
2022/10/20 10:54:40;;;;;;;26.90;13.77;;;;;;;13.23;100.00;101090.41;4971371;28;20501;-73
2022/10/20 10:57:41;;;;;;;24.23;13.18;;;;;;;13.21;100.00;101095.97;4969532;28;20101;-69
2022/10/20 11:00:16;;;;;;;23.60;14.00;;;;;;;13.18;100.00;101088.00;4922288;28;20047;-68
2022/10/20 11:02:59;;;;;;;30.83;13.77;;;;;;;13.16;100.00;101080.94;4956356;28;20038;-69
2022/10/20 11:05:45;;;;;;;20.67;13.52;;;;;;;13.15;100.00;101074.59;4971324;28;20042;-69
2022/10/20 11:08:43;;;;;;;23.85;13.63;;;;;;;13.16;100.00;101067.28;4971085;28;20476;-72
2022/10/20 11:11:28;;;;;;;20.92;13.60;;;;;;;13.16;100.00;101057.22;4945949;28;20066;-72
2022/10/20 11:14:05;;;;;;;21.13;12.88;;;;;;;13.17;100.00;101053.47;4969490;28;20770;-69
2022/10/20 11:16:46;;;;;;;25.95;14.13;;;;;;;13.20;100.00;101055.13;4971197;28;20487;-70
2022/10/20 11:19:20;;;;;;;24.75;14.95;;;;;;;13.21;100.00;101052.25;4953259;28;20034;-71